Buena Vista, Georgia
Current Conditions -  °F | °C
As of 9:55 AM on Friday 28 Nov 2014 (Local Time) from KACJ Reporting Station
Clear Clear  
Wind Chill: 31°   Ceiling: Unl
Heat Index: 37°   Visibility: 10mi
Dew Point: 27°   Wind: 9mph
Humidity: 65%   Direction: 60°ENE
Pressure: 30.44"   Gusts: NA
Location:  32.32°N, 84.52°W
Report Text: KACJ 281455Z AUTO 06008KT 10SM CLR 03/M03 A3044 RMK AO2
Loading
Personal Weather Stations






























Interactive Weather Map New forecast layout! Learn more

10-Day Weather Forecast

Advertisements
Track Severe Weather on mobile